Time;durP1;ratioP1;P1;durP2;ratioP2;P2;SDS_P1;SDS_P2;PMS_P1;PMS_P2;Temp;Humidity;BMP_temperature;BMP_pressure;BME280_temperature;BME280_humidity;BME280_pressure;Samples;Min_cycle;Max_cycle;Signal;HPM_P1;HPM_P2
2022/09/21 00:09:55;;;;;;;1.42;0.88;;;20.90;48.80;;;;;;20767755;28;20034;-80
2022/09/21 00:19:56;;;;;;;1.73;1.05;;;20.70;48.60;;;;;;20786898;28;20064;-80
2022/09/21 00:30:01;;;;;;;1.05;0.63;;;20.80;48.60;;;;;;20728565;28;20396;-81
2022/09/21 00:40:02;;;;;;;1.67;0.98;;;20.80;48.60;;;;;;20728230;28;20579;-81
2022/09/21 00:50:14;;;;;;;1.77;0.95;;;20.70;48.50;;;;;;20727380;28;20396;-81
2022/09/21 01:00:15;;;;;;;1.92;0.80;;;20.70;48.50;;;;;;20726893;28;20465;-82
2022/09/21 01:10:16;;;;;;;1.95;1.20;;;20.60;48.50;;;;;;20751582;28;20408;-81
2022/09/21 01:20:29;;;;;;;0.93;0.70;;;20.60;48.40;;;;;;20709184;28;20427;-81
2022/09/21 01:30:30;;;;;;;2.20;0.93;;;20.60;48.40;;;;;;20740858;28;20069;-82
2022/09/21 01:40:33;;;;;;;1.63;0.70;;;20.60;48.40;;;;;;21114719;23;20104;-75
2022/09/21 01:50:45;;;;;;;1.65;0.85;;;20.50;48.40;;;;;;20795217;28;20034;-76
2022/09/21 02:00:47;;;;;;;1.85;0.90;;;20.50;48.40;;;;;;20792029;28;20579;-76
2022/09/21 02:10:49;;;;;;;1.50;1.00;;;20.50;48.40;;;;;;20728468;28;20101;-76
2022/09/21 02:20:54;;;;;;;1.45;0.88;;;20.50;48.40;;;;;;20729407;28;20041;-76
2022/09/21 02:31:19;;;;;;;1.13;0.73;;;20.40;48.40;;;;;;20742320;28;20033;-76
2022/09/21 02:41:44;;;;;;;0.50;0.40;;;20.40;48.40;;;;;;20752215;28;20392;-77
2022/09/21 02:51:47;;;;;;;1.13;0.75;;;20.30;48.40;;;;;;20646431;28;20473;-76
2022/09/21 03:01:48;;;;;;;1.33;0.60;;;20.30;48.30;;;;;;20782299;28;20474;-76
2022/09/21 03:11:49;;;;;;;1.63;0.85;;;20.30;48.30;;;;;;20823963;28;20068;-77
2022/09/21 03:21:50;;;;;;;1.55;0.77;;;20.30;48.30;;;;;;20785821;28;20046;-77
2022/09/21 03:31:53;;;;;;;2.40;1.00;;;20.30;48.40;;;;;;20738196;28;20057;-75
2022/09/21 03:41:55;;;;;;;1.42;0.80;;;20.20;48.30;;;;;;20769933;28;20136;-77
2022/09/21 03:51:57;;;;;;;1.65;0.90;;;20.20;48.40;;;;;;20754502;28;20056;-75
2022/09/21 04:01:57;;;;;;;1.52;0.90;;;20.20;48.40;;;;;;20781366;28;20037;-77
2022/09/21 04:11:58;;;;;;;0.80;0.75;;;20.20;48.50;;;;;;20737630;28;20042;-75
2022/09/21 04:21:58;;;;;;;1.65;0.93;;;20.10;48.50;;;;;;20730305;28;20037;-76
2022/09/21 04:31:59;;;;;;;1.42;0.80;;;20.10;48.50;;;;;;20748114;28;20069;-79
2022/09/21 04:42:00;;;;;;;1.50;0.70;;;20.00;48.50;;;;;;20731241;28;20468;-76
2022/09/21 04:52:01;;;;;;;1.00;0.55;;;20.00;48.50;;;;;;20817588;28;20068;-79
2022/09/21 05:02:02;;;;;;;1.27;0.77;;;20.00;48.50;;;;;;20778888;28;20026;-74
2022/09/21 05:12:03;;;;;;;1.27;0.63;;;20.00;48.40;;;;;;20759773;28;20113;-70
2022/09/21 05:22:03;;;;;;;0.60;0.57;;;20.00;48.30;;;;;;20725585;28;20648;-71
2022/09/21 05:32:19;;;;;;;1.43;0.80;;;19.90;48.20;;;;;;20739051;28;20284;-72
2022/09/21 05:42:20;;;;;;;;;;;19.90;48.20;;;;;;20731728;28;20037;-74
2022/09/21 05:52:41;;;;;;;1.40;0.73;;;19.90;48.20;;;;;;20814759;28;20385;-71
2022/09/21 06:03:09;;;;;;;0.98;0.43;;;19.90;48.10;;;;;;20779321;28;20484;-71
2022/09/21 06:13:10;;;;;;;1.17;0.75;;;19.90;48.20;;;;;;20739480;28;20045;-71
2022/09/21 06:23:12;;;;;;;0.68;0.60;;;19.90;48.20;;;;;;20755523;28;20472;-70
2022/09/21 06:33:19;;;;;;;1.33;0.65;;;19.80;48.10;;;;;;20722161;28;20119;-72
2022/09/21 06:43:19;;;;;;;0.38;0.38;;;19.80;48.10;;;;;;20754132;28;20053;-69
2022/09/21 06:53:20;;;;;;;0.68;0.52;;;19.70;48.10;;;;;;20754278;28;20053;-70
2022/09/21 07:03:20;;;;;;;0.70;0.57;;;19.80;48.30;;;;;;20752055;28;20474;-70
2022/09/21 07:13:21;;;;;;;0.52;0.35;;;19.70;48.20;;;;;;20751080;28;20042;-74
2022/09/21 07:23:22;;;;;;;1.17;0.50;;;19.70;48.30;;;;;;20733790;28;20064;-72
2022/09/21 07:33:24;;;;;;;0.77;0.30;;;19.70;48.40;;;;;;20732946;28;20042;-71
2022/09/21 07:43:24;;;;;;;0.45;0.45;;;19.70;48.50;;;;;;20749115;28;20468;-71
2022/09/21 07:53:25;;;;;;;1.02;0.50;;;19.70;48.60;;;;;;20748252;28;20041;-71
2022/09/21 08:03:25;;;;;;;0.95;0.47;;;19.70;48.60;;;;;;20747992;28;20065;-70
2022/09/21 08:13:26;;;;;;;0.57;0.40;;;19.70;48.60;;;;;;20762914;28;20064;-71
2022/09/21 08:23:27;;;;;;;0.60;0.50;;;19.80;48.50;;;;;;20746296;28;20029;-70
2022/09/21 08:33:28;;;;;;;1.30;0.50;;;19.90;49.10;;;;;;20761488;28;20044;-71
2022/09/21 08:43:34;;;;;;;0.30;0.25;;;20.00;48.40;;;;;;20777017;28;20029;-71
2022/09/21 08:53:42;;;;;;;0.55;0.40;;;20.10;48.30;;;;;;20727198;28;20554;-71
2022/09/21 09:04:05;;;;;;;0.63;0.50;;;20.30;48.10;;;;;;20710467;28;20037;-70
2022/09/21 09:14:12;;;;;;;0.55;0.47;;;20.40;47.90;;;;;;20645965;28;20057;-70
2022/09/21 09:24:42;;;;;;;0.52;0.30;;;20.60;47.70;;;;;;20715653;28;20050;-73
2022/09/21 09:35:03;;;;;;;0.80;0.43;;;20.70;47.50;;;;;;20807967;28;20033;-70
2022/09/21 09:45:30;;;;;;;0.80;0.50;;;20.90;47.20;;;;;;20743596;28;20033;-71
2022/09/21 09:55:34;;;;;;;;;;;21.00;47.00;;;;;;20740450;28;20060;-71
2022/09/21 10:05:37;;;;;;;0.80;0.50;;;21.20;46.70;;;;;;20723067;28;20575;-73
2022/09/21 10:15:41;;;;;;;1.02;0.55;;;21.40;46.50;;;;;;20706680;28;20034;-71
2022/09/21 10:25:41;;;;;;;1.10;0.57;;;21.50;46.10;;;;;;20746992;28;20048;-70
2022/09/21 10:35:50;;;;;;;0.93;0.30;;;21.70;45.80;;;;;;20756038;28;20480;-70
2022/09/21 10:45:55;;;;;;;0.70;0.30;;;21.80;45.40;;;;;;20721541;28;20049;-70
2022/09/21 10:56:17;;;;;;;;;;;22.00;45.20;;;;;;20720827;28;20038;-69
2022/09/21 11:06:28;;;;;;;0.93;0.40;;;21.70;45.40;;;;;;20736176;28;19917;-70
2022/09/21 11:16:35;;;;;;;0.63;0.22;;;21.30;46.20;;;;;;20750861;28;20030;-70
2022/09/21 11:26:43;;;;;;;1.75;0.30;;;21.00;46.80;;;;;;20785709;28;20040;-71
2022/09/21 11:37:08;;;;;;;0.60;0.30;;;21.00;46.90;;;;;;20791314;28;20029;-73
2022/09/21 11:47:31;;;;;;;0.45;0.30;;;21.20;46.80;;;;;;20733162;28;20461;-70
2022/09/21 11:57:53;;;;;;;0.60;0.25;;;21.40;46.30;;;;;;20748233;28;20038;-74
2022/09/21 12:08:13;;;;;;;0.45;0.28;;;21.60;45.90;;;;;;20713658;28;20057;-71
2022/09/21 12:18:33;;;;;;;0.63;0.30;;;21.80;45.60;;;;;;20761075;28;20511;-70
2022/09/21 12:28:37;;;;;;;0.77;0.30;;;21.90;45.20;;;;;;20827328;28;20064;-72
2022/09/21 12:38:41;;;;;;;1.80;0.53;;;22.00;44.90;;;;;;20718278;28;20511;-76
2022/09/21 12:48:44;;;;;;;0.75;0.20;;;22.10;44.80;;;;;;20711770;28;20046;-73
2022/09/21 12:58:50;;;;;;;0.63;0.20;;;22.20;44.70;;;;;;20761004;28;20040;-76
2022/09/21 13:08:50;;;;;;;0.93;0.40;;;22.20;44.60;;;;;;20744043;28;20046;-76
2022/09/21 13:18:59;;;;;;;0.65;0.30;;;22.30;44.60;;;;;;20717205;28;20088;-72
2022/09/21 13:29:02;;;;;;;0.30;0.30;;;22.30;44.60;;;;;;20727091;28;20061;-72
2022/09/21 13:39:08;;;;;;;0.32;0.20;;;22.30;44.60;;;;;;20727714;28;20038;-73
2022/09/21 13:49:15;;;;;;;0.32;0.20;;;22.20;44.60;;;;;;20744307;28;20084;-74
2022/09/21 13:59:22;;;;;;;0.73;0.30;;;22.20;44.60;;;;;;20726843;28;20061;-74
2022/09/21 14:09:28;;;;;;;0.40;0.30;;;22.20;44.60;;;;;;20710629;28;20493;-74
2022/09/21 14:19:29;;;;;;;0.47;0.20;;;22.20;44.70;;;;;;20633287;28;20069;-76
2022/09/21 14:29:44;;;;;;;0.32;0.20;;;22.20;44.70;;;;;;20718468;28;20037;-75
2022/09/21 14:39:45;;;;;;;0.53;0.30;;;22.20;44.80;;;;;;20756600;28;20475;-76
2022/09/21 14:50:03;;;;;;;0.95;0.38;;;22.20;44.80;;;;;;20739090;28;20084;-73
2022/09/21 15:00:25;;;;;;;0.40;0.30;;;22.20;44.90;;;;;;20752595;28;20061;-75
2022/09/21 15:21:00;;;;;;;1.23;0.50;;;22.20;45.10;;;;;;20749553;28;20038;-76
2022/09/21 15:31:02;;;;;;;0.30;0.30;;;22.20;45.20;;;;;;20750645;28;20034;-76
2022/09/21 15:41:04;;;;;;;0.30;0.20;;;22.20;45.20;;;;;;20753122;28;20492;-76
2022/09/21 15:51:07;;;;;;;0.70;0.30;;;22.30;45.20;;;;;;20751420;28;20021;-77
2022/09/21 16:01:10;;;;;;;1.85;0.38;;;22.20;45.30;;;;;;20689108;28;20381;-79
2022/09/21 16:11:33;;;;;;;1.45;0.65;;;22.30;45.20;;;;;;20833749;28;20045;-79
2022/09/21 16:21:36;;;;;;;1.40;0.50;;;22.30;45.30;;;;;;20748187;28;20383;-77
2022/09/21 16:31:37;;;;;;;0.55;0.40;;;22.20;45.50;;;;;;20728859;28;20037;-74
2022/09/21 16:41:41;;;;;;;0.98;0.25;;;22.20;45.70;;;;;;20743871;28;20049;-74
2022/09/21 16:51:49;;;;;;;0.80;0.43;;;22.10;45.80;;;;;;20743364;28;20038;-75
2022/09/21 17:01:54;;;;;;;0.40;0.25;;;22.10;46.10;;;;;;20748609;28;20092;-75
2022/09/21 17:11:58;;;;;;;0.63;0.30;;;22.10;46.20;;;;;;20730361;28;20104;-75
2022/09/21 17:21:58;;;;;;;0.82;0.28;;;22.10;46.30;;;;;;20731480;28;20088;-76
2022/09/21 17:31:59;;;;;;;1.65;0.40;;;22.00;46.40;;;;;;20713794;28;20030;-76
2022/09/21 17:42:18;;;;;;;0.82;0.40;;;22.00;46.50;;;;;;20745609;28;20037;-75
2022/09/21 18:02:45;;;;;;;0.63;0.30;;;22.00;46.70;;;;;;20716983;28;20062;-75
2022/09/21 18:12:57;;;;;;;0.40;0.30;;;21.90;46.80;;;;;;20743940;28;20042;-77
2022/09/21 18:23:32;;;;;;;3.45;0.70;;;21.80;46.80;;;;;;20739876;28;20614;-77
2022/09/21 18:33:52;;;;;;;0.65;0.30;;;21.80;47.00;;;;;;20690140;28;20053;-75
2022/09/21 18:44:03;;;;;;;0.57;0.28;;;21.80;47.20;;;;;;20746167;28;20092;-76
2022/09/21 18:54:04;;;;;;;0.82;0.50;;;21.70;47.30;;;;;;20723533;28;20045;-78
2022/09/21 19:04:05;;;;;;;0.95;0.50;;;21.60;47.40;;;;;;20710069;28;20388;-76
2022/09/21 19:14:17;;;;;;;0.77;0.43;;;21.60;47.50;;;;;;20741536;28;20045;-76
2022/09/21 19:24:26;;;;;;;0.40;0.30;;;21.60;47.60;;;;;;20755287;28;20392;-76
2022/09/21 19:34:28;;;;;;;1.17;0.50;;;21.60;47.70;;;;;;20755001;28;20600;-75
2022/09/21 19:44:54;;;;;;;1.85;0.50;;;21.50;47.70;;;;;;20737906;28;20538;-75
2022/09/21 20:05:23;;;;;;;0.40;0.30;;;21.50;47.90;;;;;;20753467;28;20639;-76
2022/09/21 20:15:28;;;;;;;1.10;0.40;;;21.40;48.00;;;;;;20735513;28;20124;-75
2022/09/21 20:25:49;;;;;;;1.23;0.60;;;21.40;48.00;;;;;;20734204;28;20045;-76
2022/09/21 20:35:54;;;;;;;0.35;0.30;;;21.40;48.10;;;;;;20751708;28;20046;-75
2022/09/21 20:45:56;;;;;;;1.20;0.50;;;21.30;48.10;;;;;;20750402;28;20069;-76
2022/09/21 20:55:57;;;;;;;1.17;0.60;;;21.30;48.10;;;;;;20752412;28;20046;-76
2022/09/21 21:06:19;;;;;;;1.73;0.65;;;21.20;48.10;;;;;;20731996;28;20400;-77
2022/09/21 21:16:19;;;;;;;0.70;0.50;;;21.20;48.20;;;;;;20748650;28;20041;-75
2022/09/21 21:26:20;;;;;;;0.93;0.50;;;21.20;48.20;;;;;;20747245;28;20038;-77
2022/09/21 21:36:21;;;;;;;2.20;0.65;;;21.10;48.20;;;;;;20681873;28;20290;-76
2022/09/21 21:46:21;;;;;;;1.33;0.70;;;21.10;48.20;;;;;;20736049;28;20084;-76
2022/09/21 21:56:22;;;;;;;1.30;0.77;;;21.10;48.20;;;;;;20745160;28;20037;-77
2022/09/21 22:06:22;;;;;;;2.88;0.93;;;21.10;48.20;;;;;;20745587;28;20077;-75
2022/09/21 22:16:24;;;;;;;1.27;0.82;;;21.10;48.20;;;;;;20728716;28;20083;-76
2022/09/21 22:26:26;;;;;;;1.20;0.60;;;21.00;48.20;;;;;;20728617;28;20037;-76
2022/09/21 22:36:28;;;;;;;1.95;0.80;;;21.00;48.20;;;;;;20726832;28;20049;-77
2022/09/21 22:46:29;;;;;;;1.33;0.60;;;21.00;48.20;;;;;;20737905;28;20061;-76
2022/09/21 22:56:30;;;;;;;1.30;0.68;;;20.90;48.20;;;;;;20743089;28;20038;-76
2022/09/21 23:06:32;;;;;;;0.77;0.60;;;20.90;48.10;;;;;;20742228;28;20037;-77
2022/09/21 23:16:33;;;;;;;0.82;0.60;;;20.90;48.10;;;;;;20740506;28;20169;-75
2022/09/21 23:26:33;;;;;;;1.67;0.77;;;20.90;48.00;;;;;;20755865;28;20042;-78
2022/09/21 23:36:34;;;;;;;1.05;0.63;;;20.90;48.00;;;;;;20739547;28;20169;-77
2022/09/21 23:46:36;;;;;;;0.88;0.63;;;20.90;48.00;;;;;;20680877;28;20062;-76
2022/09/21 23:56:37;;;;;;;1.20;0.70;;;20.90;48.00;;;;;;20688309;28;20046;-77
